Time;durP1;ratioP1;P1;durP2;ratioP2;P2;SDS_P1;SDS_P2;PMS_P1;PMS_P2;Temp;Humidity;BMP_temperature;BMP_pressure;BME280_temperature;BME280_humidity;BME280_pressure;Samples;Min_cycle;Max_cycle;Signal;HPM_P1;HPM_P2
2022/05/03 00:01:12;;;;;;;6.88;2.63;;;9.90;99.90;;;;;;12385629;28;20189;-82
2022/05/03 00:07:25;;;;;;;4.25;2.22;;;9.80;99.90;;;;;;12392744;28;20054;-79
2022/05/03 00:13:36;;;;;;;4.38;2.38;;;10.00;99.90;;;;;;12406457;28;20141;-81
2022/05/03 00:19:39;;;;;;;3.25;2.10;;;10.00;99.90;;;;;;12399349;28;20054;-80
2022/05/03 00:25:41;;;;;;;4.97;2.78;;;10.00;99.90;;;;;;12394777;28;20504;-79
2022/05/03 00:31:44;;;;;;;5.57;2.40;;;10.00;99.90;;;;;;12390558;28;21081;-81
2022/05/03 00:37:46;;;;;;;5.07;1.85;;;9.80;99.90;;;;;;12405778;28;20704;-80
2022/05/03 00:44:01;;;;;;;4.05;2.50;;;9.80;99.90;;;;;;12395370;28;20831;-79
2022/05/03 00:50:08;;;;;;;4.45;2.30;;;9.70;99.90;;;;;;12391495;28;20572;-82
2022/05/03 00:56:54;;;;;;;4.32;2.30;;;9.60;99.90;;;;;;12396921;28;20091;-81
2022/05/03 01:03:28;;;;;;;4.55;2.38;;;9.50;99.90;;;;;;12397642;28;20100;-84
2022/05/03 01:09:41;;;;;;;4.23;1.63;;;9.40;99.90;;;;;;12391714;28;20058;-79
2022/05/03 01:15:50;;;;;;;4.78;2.08;;;9.30;99.90;;;;;;12395820;28;20132;-82
2022/05/03 01:22:10;;;;;;;5.70;2.10;;;9.40;99.90;;;;;;12391551;28;20611;-81
2022/05/03 01:28:21;;;;;;;4.50;2.10;;;9.20;99.90;;;;;;12397275;28;20129;-79
2022/05/03 01:34:25;;;;;;;3.00;1.80;;;9.20;99.90;;;;;;12388899;28;20836;-84
2022/05/03 01:40:37;;;;;;;3.92;2.00;;;9.10;99.90;;;;;;12399028;28;20108;-81
2022/05/03 01:46:40;;;;;;;4.78;1.90;;;9.00;99.90;;;;;;12400987;28;20137;-83
2022/05/03 01:52:54;;;;;;;7.25;1.92;;;8.90;99.90;;;;;;12397124;28;20053;-83
2022/05/03 01:59:34;;;;;;;6.23;2.17;;;8.80;99.90;;;;;;12395047;28;20104;-80
2022/05/03 02:05:39;;;;;;;6.63;2.10;;;8.50;99.90;;;;;;12398356;28;20157;-82
2022/05/03 02:11:47;;;;;;;3.40;1.80;;;8.50;99.90;;;;;;12397684;28;20050;-83
2022/05/03 02:17:54;;;;;;;10.35;2.10;;;8.40;99.90;;;;;;12396735;28;20046;-81
2022/05/03 02:24:08;;;;;;;4.30;1.98;;;8.50;99.90;;;;;;12399347;28;20050;-81
2022/05/03 02:30:13;;;;;;;4.28;1.85;;;8.50;99.90;;;;;;12393483;28;20050;-81
2022/05/03 02:36:17;;;;;;;3.92;1.40;;;8.50;99.90;;;;;;12390760;28;20092;-83
2022/05/03 02:42:20;;;;;;;2.67;1.30;;;8.50;99.90;;;;;;12395203;28;20369;-82
2022/05/03 02:48:40;;;;;;;4.43;1.40;;;8.50;99.90;;;;;;12391353;28;20123;-83
2022/05/03 02:55:12;;;;;;;3.38;1.35;;;8.60;99.90;;;;;;12387583;28;20049;-83
2022/05/03 03:07:46;;;;;;;3.63;1.60;;;8.70;99.90;;;;;;12390972;28;20053;-83
2022/05/03 03:14:03;;;;;;;3.40;1.50;;;8.60;99.90;;;;;;12393470;28;20145;-81
2022/05/03 03:20:13;;;;;;;2.50;1.38;;;8.70;99.90;;;;;;12398468;28;20100;-81
2022/05/03 03:26:17;;;;;;;2.85;1.23;;;8.70;99.90;;;;;;12388292;28;20042;-83
2022/05/03 03:32:21;;;;;;;3.30;1.50;;;8.70;99.90;;;;;;12390899;28;20127;-82
2022/05/03 03:38:40;;;;;;;2.40;1.20;;;8.50;99.90;;;;;;12396967;28;20104;-82
2022/05/03 03:44:42;;;;;;;6.80;1.60;;;8.40;99.90;;;;;;12405076;28;20136;-82
2022/05/03 03:50:44;;;;;;;2.28;1.20;;;8.20;99.90;;;;;;12402687;28;20147;-80
2022/05/03 03:56:49;;;;;;;5.50;1.67;;;8.10;99.90;;;;;;12404951;28;20054;-83
2022/05/03 04:02:51;;;;;;;3.50;1.50;;;8.00;99.90;;;;;;12395490;28;20039;-82
2022/05/03 04:08:53;;;;;;;4.57;1.67;;;7.80;99.90;;;;;;12402465;28;20482;-82
2022/05/03 04:14:55;;;;;;;2.78;1.60;;;7.90;99.90;;;;;;12397624;28;20053;-80
2022/05/03 04:20:57;;;;;;;4.80;1.70;;;7.90;99.90;;;;;;12398996;28;20590;-82
2022/05/03 04:26:58;;;;;;;2.47;1.63;;;7.80;99.90;;;;;;12398033;28;20458;-83
2022/05/03 04:33:00;;;;;;;3.42;1.60;;;7.90;99.90;;;;;;12395653;28;20489;-80
2022/05/03 04:39:03;;;;;;;4.65;1.50;;;7.60;99.90;;;;;;12392518;28;20507;-80
2022/05/03 04:45:06;;;;;;;3.72;1.67;;;7.70;99.90;;;;;;12395139;28;20056;-80
2022/05/03 04:51:21;;;;;;;3.10;1.50;;;7.70;99.90;;;;;;12390435;28;20077;-81
2022/05/03 04:57:23;;;;;;;3.83;1.63;;;7.90;99.90;;;;;;12399290;28;20050;-80
2022/05/03 05:03:25;;;;;;;4.32;1.67;;;8.20;99.90;;;;;;12418543;28;20121;-80
2022/05/03 05:09:27;;;;;;;4.47;1.50;;;9.20;99.90;;;;;;12425657;28;20081;-81
2022/05/03 05:15:29;;;;;;;6.63;2.10;;;9.40;99.90;;;;;;12396872;28;20140;-83
2022/05/03 05:21:31;;;;;;;3.45;1.85;;;9.40;99.90;;;;;;12423042;28;20094;-80
2022/05/03 05:27:33;;;;;;;5.13;2.25;;;9.20;99.90;;;;;;12406071;28;20141;-82
2022/05/03 05:33:35;;;;;;;3.70;2.28;;;9.30;99.90;;;;;;12402578;28;20137;-81
2022/05/03 05:39:37;;;;;;;5.45;2.40;;;9.50;99.90;;;;;;12403721;28;20148;-80
2022/05/03 05:45:39;;;;;;;3.95;1.83;;;10.30;99.90;;;;;;12391927;28;20108;-80
2022/05/03 05:51:40;;;;;;;5.05;2.40;;;10.60;99.90;;;;;;12388762;28;20824;-80
2022/05/03 05:57:42;;;;;;;3.70;2.03;;;10.20;99.90;;;;;;12384529;28;20050;-80
2022/05/03 06:03:45;;;;;;;4.35;2.40;;;10.30;99.90;;;;;;12384984;28;20061;-80
2022/05/03 06:09:50;;;;;;;3.65;2.03;;;10.30;99.90;;;;;;12402175;23;20800;-37
2022/05/03 06:15:54;;;;;;;3.72;1.98;;;10.10;99.90;;;;;;12306969;28;20074;-36
2022/05/03 06:21:56;;;;;;;6.40;1.98;;;10.10;99.90;;;;;;12322651;28;20050;-35
2022/05/03 06:27:58;;;;;;;4.57;2.50;;;10.10;99.90;;;;;;12321531;28;20065;-37
2022/05/03 06:34:01;;;;;;;5.20;2.03;;;10.20;99.90;;;;;;12318855;28;20093;-37
2022/05/03 06:40:09;;;;;;;3.00;2.10;;;10.50;99.90;;;;;;12321536;28;20050;-35
2022/05/03 06:46:11;;;;;;;5.10;2.03;;;10.60;99.90;;;;;;12323926;28;20856;-36
2022/05/03 06:52:13;;;;;;;5.78;2.10;;;10.50;99.90;;;;;;12324175;28;20051;-36
2022/05/03 06:58:15;;;;;;;3.35;1.88;;;10.70;99.90;;;;;;12318973;28;20050;-36
2022/05/03 07:04:17;;;;;;;8.75;1.63;;;10.80;99.90;;;;;;12317646;28;20081;-37
2022/05/03 07:10:19;;;;;;;3.45;1.60;;;10.40;99.90;;;;;;12317252;28;20795;-36
2022/05/03 07:16:21;;;;;;;2.30;1.27;;;10.80;99.90;;;;;;12320709;28;20051;-37
2022/05/03 07:28:48;;;;;;;1.55;0.80;;;10.90;99.90;;;;;;12327543;28;20086;-37
2022/05/03 07:34:51;;;;;;;0.60;0.40;;;11.00;99.90;;;;;;12323115;28;20050;-37
2022/05/03 07:40:54;;;;;;;0.55;0.40;;;10.70;99.90;;;;;;12325519;28;20133;-36
2022/05/03 07:46:57;;;;;;;0.80;0.60;;;10.90;99.90;;;;;;12329167;28;20097;-37
2022/05/03 07:52:59;;;;;;;1.25;0.63;;;11.00;99.90;;;;;;12325017;28;20146;-37
2022/05/03 07:59:02;;;;;;;1.55;0.60;;;11.30;99.90;;;;;;12325853;28;20054;-38
2022/05/03 08:05:05;;;;;;;2.55;0.60;;;11.50;99.90;;;;;;12322824;28;20411;-36
2022/05/03 08:11:07;;;;;;;1.45;0.80;;;11.90;99.90;;;;;;12326419;28;20059;-37
2022/05/03 08:17:09;;;;;;;1.48;0.88;;;12.10;99.90;;;;;;12321936;28;20046;-36
2022/05/03 08:23:11;;;;;;;2.05;1.20;;;12.30;99.90;;;;;;12319135;28;20599;-36
2022/05/03 08:29:13;;;;;;;5.78;1.50;;;12.50;99.90;;;;;;12326412;28;20051;-36
2022/05/03 08:35:15;;;;;;;3.95;1.55;;;12.30;99.90;;;;;;12327493;28;21117;-38
2022/05/03 08:47:38;;;;;;;6.22;1.80;;;12.80;99.90;;;;;;12329241;28;20050;-38
2022/05/03 08:53:40;;;;;;;4.35;1.83;;;13.00;99.90;;;;;;12326359;28;20426;-38
2022/05/03 08:59:43;;;;;;;3.83;1.90;;;13.10;99.90;;;;;;12326077;28;20479;-37
2022/05/03 09:05:45;;;;;;;3.97;1.80;;;13.10;99.90;;;;;;12327088;28;20065;-37
2022/05/03 09:11:50;;;;;;;4.32;1.80;;;13.50;99.90;;;;;;12329925;28;20050;-38
2022/05/03 09:17:51;;;;;;;3.60;2.00;;;13.80;99.90;;;;;;12328145;28;20051;-38
2022/05/03 09:24:01;;;;;;;3.45;1.80;;;14.00;99.90;;;;;;12328397;28;20414;-36
2022/05/03 09:30:12;;;;;;;3.20;2.17;;;13.50;99.90;;;;;;12333120;28;20062;-38
2022/05/03 09:36:14;;;;;;;4.22;2.38;;;13.90;99.90;;;;;;12328055;28;20046;-36
2022/05/03 09:42:37;;;;;;;4.57;2.70;;;14.00;99.90;;;;;;12331528;28;20070;-36
2022/05/03 09:48:52;;;;;;;5.07;3.03;;;14.30;99.90;;;;;;12323640;28;20091;-37
2022/05/03 09:55:06;;;;;;;6.43;3.70;;;14.30;99.90;;;;;;12325446;28;20486;-38
2022/05/03 10:01:10;;;;;;;6.47;3.47;;;14.60;99.90;;;;;;12326983;28;20059;-36
2022/05/03 10:07:13;;;;;;;7.55;4.00;;;14.80;99.90;;;;;;12325099;28;20054;-37
2022/05/03 10:13:15;;;;;;;6.93;4.60;;;15.10;99.90;;;;;;12325744;28;20051;-37
2022/05/03 10:25:47;;;;;;;6.50;3.73;;;15.50;99.90;;;;;;12325719;28;20050;-37
2022/05/03 10:32:04;;;;;;;7.10;4.25;;;15.90;99.90;;;;;;12322324;28;20058;-38
2022/05/03 10:38:07;;;;;;;6.00;4.00;;;15.60;99.90;;;;;;12321570;28;21014;-38
2022/05/03 10:44:41;;;;;;;6.30;4.18;;;15.90;99.90;;;;;;12321733;28;20070;-37
2022/05/03 10:50:43;;;;;;;9.25;4.60;;;16.20;99.90;;;;;;12320967;28;20070;-38
2022/05/03 10:57:07;;;;;;;6.07;4.03;;;16.10;99.90;;;;;;12321570;28;20054;-36
2022/05/03 11:03:19;;;;;;;6.65;4.25;;;16.00;99.90;;;;;;12321819;28;20134;-37
2022/05/03 11:09:29;;;;;;;6.07;4.43;;;16.10;99.90;;;;;;12319106;28;20117;-38
2022/05/03 11:15:31;;;;;;;6.78;4.90;;;16.50;99.90;;;;;;12320703;28;20066;-36
2022/05/03 11:21:34;;;;;;;7.00;4.97;;;16.50;99.90;;;;;;12316358;28;20507;-36
2022/05/03 11:27:36;;;;;;;9.35;5.55;;;16.70;99.90;;;;;;12318729;28;20085;-37
2022/05/03 11:33:52;;;;;;;9.27;5.82;;;17.00;99.90;;;;;;12320139;28;20055;-39
2022/05/03 11:40:08;;;;;;;9.00;5.47;;;17.10;99.90;;;;;;12319645;28;20055;-38
2022/05/03 11:46:10;;;;;;;8.48;6.40;;;16.50;99.90;;;;;;12319001;28;20575;-36
2022/05/03 11:58:36;;;;;;;8.85;6.32;;;16.70;99.90;;;;;;12322747;28;20082;-37
2022/05/03 12:04:39;;;;;;;6.07;5.03;;;16.50;99.90;;;;;;12329722;28;20054;-37
2022/05/03 12:10:42;;;;;;;9.25;5.97;;;16.80;99.90;;;;;;12338195;28;20046;-36
2022/05/03 12:16:50;;;;;;;7.30;5.45;;;17.00;99.90;;;;;;12339185;28;20059;-38
2022/05/03 12:23:27;;;;;;;8.63;5.88;;;17.40;99.90;;;;;;12335798;28;20082;-38
2022/05/03 12:29:31;;;;;;;7.95;6.07;;;17.60;99.90;;;;;;12296864;28;20081;-38
2022/05/03 12:35:35;;;;;;;;;;;17.70;99.90;;;;;;12335054;28;20082;-37
2022/05/03 12:41:38;;;;;;;6.95;5.55;;;17.40;99.90;;;;;;12336098;28;19933;-38
2022/05/03 12:47:43;;;;;;;7.38;5.32;;;17.40;99.90;;;;;;12354102;28;20051;-36
2022/05/03 12:53:48;;;;;;;7.40;5.60;;;17.50;99.90;;;;;;12335222;28;20189;-39
2022/05/03 12:59:50;;;;;;;9.23;6.22;;;17.40;99.90;;;;;;12338929;28;20057;-37
2022/05/03 13:05:56;;;;;;;8.47;5.30;;;16.80;99.90;;;;;;12338551;28;20047;-36
2022/05/03 13:12:01;;;;;;;8.52;6.20;;;16.30;99.90;;;;;;12334914;28;20050;-37
2022/05/03 13:18:04;;;;;;;8.13;6.13;;;16.60;99.90;;;;;;12332556;28;20259;-36
2022/05/03 13:24:07;;;;;;;9.32;5.47;;;16.20;99.90;;;;;;12335371;28;20127;-39
2022/05/03 13:30:10;;;;;;;7.43;5.90;;;16.00;99.90;;;;;;12332468;28;20142;-37
2022/05/03 13:42:33;;;;;;;8.90;6.85;;;15.50;99.90;;;;;;12329141;28;20613;-39
2022/05/03 13:48:35;;;;;;;10.05;6.78;;;15.70;99.90;;;;;;12325958;28;20480;-36
2022/05/03 13:54:37;;;;;;;9.82;6.65;;;15.30;99.90;;;;;;12332873;28;20047;-36
2022/05/03 14:00:41;;;;;;;9.73;6.50;;;15.60;99.90;;;;;;12330434;28;20061;-36
2022/05/03 14:06:43;;;;;;;9.05;6.10;;;15.70;99.90;;;;;;12329527;28;20062;-37
2022/05/03 14:12:45;;;;;;;8.23;5.70;;;15.40;99.90;;;;;;12321897;28;20149;-36
2022/05/03 14:18:48;;;;;;;6.50;5.20;;;16.20;99.90;;;;;;12325373;28;20484;-38
2022/05/03 14:24:50;;;;;;;9.68;5.38;;;16.90;99.90;;;;;;12320064;28;20082;-36
2022/05/03 14:30:52;;;;;;;9.27;5.70;;;16.60;99.90;;;;;;12322024;28;20948;-36
2022/05/03 14:36:53;;;;;;;9.15;5.88;;;16.20;99.90;;;;;;12322196;28;20057;-38
2022/05/03 14:42:55;;;;;;;11.02;6.63;;;15.70;99.90;;;;;;12324139;28;20051;-38
2022/05/03 14:48:57;;;;;;;10.85;6.90;;;15.50;99.90;;;;;;12322342;28;20141;-36
2022/05/03 14:55:00;;;;;;;9.38;6.15;;;15.30;99.90;;;;;;12331407;28;20074;-37
2022/05/03 15:07:05;;;;;;;8.52;6.22;;;15.20;99.90;;;;;;12327524;28;20054;-37
2022/05/03 15:13:09;;;;;;;10.27;6.45;;;15.20;99.90;;;;;;12327623;28;20058;-37
2022/05/03 15:19:11;;;;;;;11.60;7.15;;;15.20;99.90;;;;;;12335524;28;20462;-36
2022/05/03 15:25:13;;;;;;;10.45;7.18;;;15.60;99.90;;;;;;12331593;28;20380;-37
2022/05/03 15:31:16;;;;;;;9.50;7.00;;;15.90;99.90;;;;;;12322793;28;20518;-37
2022/05/03 15:37:21;;;;;;;8.85;6.18;;;15.50;99.90;;;;;;12314137;28;20050;-38
2022/05/03 15:43:23;;;;;;;11.55;6.88;;;15.50;99.90;;;;;;12331750;28;20085;-38
2022/05/03 15:49:25;;;;;;;11.07;6.85;;;15.30;99.90;;;;;;12330408;28;20058;-37
2022/05/03 15:55:27;;;;;;;13.60;7.47;;;14.90;99.90;;;;;;12331855;28;20078;-35
2022/05/03 16:01:31;;;;;;;10.27;6.63;;;14.70;99.90;;;;;;12332412;28;20047;-38
2022/05/03 16:07:33;;;;;;;11.77;7.13;;;14.60;99.90;;;;;;12332968;28;20047;-37
2022/05/03 16:13:35;;;;;;;11.15;6.93;;;14.50;99.90;;;;;;12342441;28;20648;-37
2022/05/03 16:19:38;;;;;;;17.55;7.80;;;14.40;99.90;;;;;;12341708;28;20142;-36
2022/05/03 16:25:42;;;;;;;12.43;6.73;;;14.40;99.90;;;;;;12339455;28;20102;-37
2022/05/03 16:31:45;;;;;;;11.93;6.73;;;14.40;99.90;;;;;;12334145;28;20356;-37
2022/05/03 16:44:10;;;;;;;12.23;7.10;;;14.40;99.90;;;;;;12332872;28;20507;-38
2022/05/03 16:50:13;;;;;;;11.50;6.00;;;14.40;99.90;;;;;;12333776;28;21089;-37
2022/05/03 16:56:19;;;;;;;10.25;6.10;;;14.40;99.90;;;;;;12330172;28;20134;-36
2022/05/03 17:02:22;;;;;;;13.25;6.18;;;14.20;99.90;;;;;;12330314;28;20110;-37
2022/05/03 17:08:25;;;;;;;10.73;5.82;;;14.10;99.90;;;;;;12326231;28;20089;-37
2022/05/03 17:14:28;;;;;;;15.80;6.47;;;14.20;99.90;;;;;;12330874;28;20058;-38
2022/05/03 17:20:33;;;;;;;11.15;5.70;;;14.00;99.90;;;;;;12330358;28;20438;-37
2022/05/03 17:26:36;;;;;;;9.27;5.22;;;13.90;99.90;;;;;;12328458;28;20077;-36
2022/05/03 17:32:38;;;;;;;14.63;4.97;;;13.90;99.90;;;;;;12327442;28;20050;-35
2022/05/03 17:38:45;;;;;;;14.68;5.30;;;13.70;99.90;;;;;;12334057;28;20134;-36
2022/05/03 17:44:47;;;;;;;7.03;4.45;;;13.60;99.90;;;;;;12338453;28;20487;-37
2022/05/03 17:50:50;;;;;;;11.88;5.70;;;13.70;99.90;;;;;;12340793;28;20151;-36
2022/05/03 17:56:52;;;;;;;10.30;5.30;;;13.70;99.90;;;;;;12330681;28;20098;-38
2022/05/03 18:02:54;;;;;;;7.53;4.40;;;13.70;99.90;;;;;;12331191;28;20050;-37
2022/05/03 18:09:02;;;;;;;9.25;4.20;;;13.70;99.90;;;;;;12334656;28;20100;-37
2022/05/03 18:15:05;;;;;;;10.13;3.88;;;13.70;99.90;;;;;;12333952;28;20050;-38
2022/05/03 18:21:08;;;;;;;12.18;3.97;;;13.60;99.90;;;;;;12328692;28;20675;-36
2022/05/03 18:27:10;;;;;;;8.98;3.67;;;13.50;99.90;;;;;;12333903;28;20043;-37
2022/05/03 18:33:13;;;;;;;7.40;3.72;;;13.30;99.90;;;;;;12335594;28;20973;-38
2022/05/03 18:39:15;;;;;;;9.07;3.17;;;13.20;99.90;;;;;;12329470;28;20054;-36
2022/05/03 18:45:18;;;;;;;12.57;5.55;;;12.90;99.90;;;;;;12328250;28;20046;-36
2022/05/03 18:51:21;;;;;;;6.75;3.22;;;12.80;99.90;;;;;;12416678;28;20060;-38
2022/05/03 18:57:23;;;;;;;6.93;3.08;;;12.60;99.90;;;;;;12423169;28;20104;-37
2022/05/03 19:03:25;;;;;;;8.50;3.25;;;12.50;99.90;;;;;;12422186;28;20141;-36
2022/05/03 19:09:27;;;;;;;6.10;2.53;;;12.50;99.90;;;;;;12410732;28;20267;-37
2022/05/03 19:15:30;;;;;;;6.65;2.83;;;12.50;99.90;;;;;;12423185;28;20057;-36
2022/05/03 19:21:31;;;;;;;6.55;2.72;;;12.40;99.90;;;;;;12424345;28;20425;-38
2022/05/03 19:33:54;;;;;;;11.40;3.03;;;12.20;99.90;;;;;;12407849;28;20049;-36
2022/05/03 19:39:57;;;;;;;5.72;2.70;;;12.20;99.90;;;;;;12413492;28;20137;-36
2022/05/03 19:45:59;;;;;;;10.00;3.90;;;12.20;99.90;;;;;;12425692;28;20081;-38
2022/05/03 19:52:01;;;;;;;6.82;3.45;;;12.00;99.90;;;;;;12422375;28;20430;-38
2022/05/03 19:58:05;;;;;;;6.07;3.30;;;12.00;99.90;;;;;;12414849;28;20045;-38
2022/05/03 20:04:07;;;;;;;8.63;3.70;;;11.90;99.90;;;;;;12421057;28;20058;-38
2022/05/03 20:10:13;;;;;;;9.30;3.22;;;11.70;99.90;;;;;;12424320;28;20065;-38
2022/05/03 20:16:16;;;;;;;6.90;3.25;;;11.70;99.90;;;;;;12428188;28;20042;-39
2022/05/03 20:22:19;;;;;;;8.35;3.30;;;11.60;99.90;;;;;;12423652;28;20049;-38
2022/05/03 20:28:22;;;;;;;11.57;3.85;;;11.50;99.90;;;;;;12431008;28;20108;-36
2022/05/03 20:34:24;;;;;;;8.77;3.40;;;11.20;99.90;;;;;;12426460;28;20064;-36
2022/05/03 20:40:26;;;;;;;9.95;3.08;;;11.00;99.90;;;;;;12428264;28;20571;-38
2022/05/03 20:52:49;;;;;;;8.73;3.00;;;11.10;99.90;;;;;;12429138;28;20156;-37
2022/05/03 20:58:51;;;;;;;7.72;2.70;;;11.00;99.90;;;;;;12431433;28;20133;-36
2022/05/03 21:04:53;;;;;;;8.77;3.08;;;11.00;99.90;;;;;;12427891;28;20103;-38
2022/05/03 21:10:55;;;;;;;9.15;3.00;;;10.90;99.90;;;;;;12427319;28;20136;-39
2022/05/03 21:16:57;;;;;;;7.95;3.30;;;10.90;99.90;;;;;;12430582;28;20623;-37
2022/05/03 21:22:59;;;;;;;8.73;3.00;;;10.80;99.90;;;;;;12427900;28;20042;-36
2022/05/03 21:29:01;;;;;;;9.70;3.50;;;10.70;99.90;;;;;;12430251;28;20061;-37
2022/05/03 21:35:04;;;;;;;8.65;3.15;;;10.70;99.90;;;;;;12425934;28;20057;-37
2022/05/03 21:41:06;;;;;;;9.50;3.30;;;10.60;99.90;;;;;;12426623;28;20145;-36
2022/05/03 21:47:08;;;;;;;10.32;3.15;;;10.60;99.90;;;;;;12426184;28;20050;-37
2022/05/03 21:53:10;;;;;;;7.47;3.08;;;10.50;99.90;;;;;;12425642;28;20042;-38
2022/05/03 21:59:12;;;;;;;10.05;3.92;;;10.40;99.90;;;;;;12411933;28;20271;-37
2022/05/03 22:05:15;;;;;;;10.02;3.80;;;10.30;99.90;;;;;;12429641;28;20459;-38
2022/05/03 22:11:17;;;;;;;10.52;3.35;;;10.30;99.90;;;;;;12429711;28;20081;-37
2022/05/03 22:17:19;;;;;;;10.95;3.45;;;10.30;99.90;;;;;;12425377;28;20092;-38
2022/05/03 22:23:21;;;;;;;10.88;3.20;;;10.20;99.90;;;;;;12429230;28;20045;-38
2022/05/03 22:29:23;;;;;;;13.68;3.85;;;10.20;99.90;;;;;;12423180;28;20453;-38
2022/05/03 22:35:25;;;;;;;11.45;3.83;;;10.10;99.90;;;;;;12407707;28;20108;-36
2022/05/03 22:41:27;;;;;;;7.80;3.40;;;10.10;99.90;;;;;;12423117;28;20050;-37
2022/05/03 22:47:30;;;;;;;10.18;3.55;;;10.00;99.90;;;;;;12423110;28;20300;-37
2022/05/03 22:53:32;;;;;;;9.63;4.05;;;10.00;99.90;;;;;;12417852;28;20423;-37
2022/05/03 22:59:34;;;;;;;14.50;4.07;;;9.80;99.90;;;;;;12408916;28;20052;-35
2022/05/03 23:05:36;;;;;;;12.45;3.78;;;9.60;99.90;;;;;;12417815;28;20497;-36
2022/05/03 23:11:38;;;;;;;9.65;3.50;;;9.40;99.90;;;;;;12414411;28;20054;-38
2022/05/03 23:17:40;;;;;;;8.43;3.28;;;9.40;99.90;;;;;;12411048;28;20495;-36
2022/05/03 23:23:42;;;;;;;12.43;4.22;;;9.40;99.90;;;;;;12413817;28;20189;-36
2022/05/03 23:29:44;;;;;;;11.05;4.38;;;9.50;99.90;;;;;;12418901;28;20053;-37
2022/05/03 23:35:49;;;;;;;10.27;3.90;;;9.40;99.90;;;;;;12419674;28;20050;-38
2022/05/03 23:41:52;;;;;;;11.32;3.70;;;9.40;99.90;;;;;;12415982;28;20522;-38
2022/05/03 23:47:56;;;;;;;11.50;3.80;;;9.40;99.90;;;;;;12421566;28;20073;-38
2022/05/03 23:53:58;;;;;;;14.02;5.07;;;9.30;99.90;;;;;;12417951;28;20152;-37
